Time;durP1;ratioP1;P1;durP2;ratioP2;P2;SDS_P1;SDS_P2;PMS_P1;PMS_P2;Temp;Humidity;BMP_temperature;BMP_pressure;BME280_temperature;BME280_humidity;BME280_pressure;Samples;Min_cycle;Max_cycle;Signal;HPM_P1;HPM_P2
2021/11/22 00:02:10;;;;;;;6.40;4.63;;;7.60;96.10;;;;;;4897477;29;20060;-91
2021/11/22 00:04:36;;;;;;;9.27;5.43;;;7.60;96.10;;;;;;4880563;29;20063;-91
2021/11/22 00:07:04;;;;;;;10.70;5.97;;;7.60;96.10;;;;;;4898653;29;20060;-91
2021/11/22 00:09:33;;;;;;;12.98;6.82;;;7.60;96.10;;;;;;4899731;29;20460;-91
2021/11/22 00:12:00;;;;;;;14.88;8.27;;;7.60;96.10;;;;;;4896184;29;20024;-91
2021/11/22 00:14:26;;;;;;;11.48;8.05;;;7.60;96.30;;;;;;4894187;29;20084;-91
2021/11/22 00:16:52;;;;;;;13.48;8.00;;;7.70;96.10;;;;;;4890301;29;20032;-91
2021/11/22 00:19:18;;;;;;;13.32;7.55;;;7.60;96.00;;;;;;4905244;29;20039;-91
2021/11/22 00:21:46;;;;;;;12.95;6.93;;;7.70;95.90;;;;;;4887911;29;20396;-91
2021/11/22 00:24:12;;;;;;;14.32;7.20;;;7.60;95.80;;;;;;4888150;29;20064;-91
2021/11/22 00:26:38;;;;;;;14.18;7.72;;;7.60;95.80;;;;;;4888270;29;20047;-92
2021/11/22 00:29:06;;;;;;;13.05;7.38;;;7.60;95.80;;;;;;4873130;29;20043;-91
2021/11/22 00:31:31;;;;;;;14.25;6.72;;;7.60;95.80;;;;;;4887558;29;20160;-92
2021/11/22 00:33:58;;;;;;;10.50;6.60;;;7.60;95.70;;;;;;4885257;29;20064;-92
2021/11/22 00:36:24;;;;;;;14.23;6.82;;;7.60;95.70;;;;;;4867566;29;20036;-92
2021/11/22 00:38:50;;;;;;;13.63;7.22;;;7.60;95.70;;;;;;4867741;29;20040;-91
2021/11/22 00:41:16;;;;;;;11.18;6.28;;;7.50;95.70;;;;;;4882427;29;20037;-91
2021/11/22 00:43:42;;;;;;;14.48;7.22;;;7.50;95.60;;;;;;4882767;29;20081;-91
2021/11/22 00:46:10;;;;;;;9.57;6.00;;;7.50;95.60;;;;;;4900053;29;20365;-91
2021/11/22 00:48:38;;;;;;;9.07;5.28;;;7.50;95.60;;;;;;4882827;29;20076;-91
2021/11/22 00:51:03;;;;;;;9.07;6.00;;;7.50;95.50;;;;;;4882033;29;20036;-91
2021/11/22 00:53:29;;;;;;;9.43;5.55;;;7.50;95.50;;;;;;4882402;29;20033;-92
2021/11/22 00:55:57;;;;;;;9.25;5.93;;;7.50;95.40;;;;;;4867027;29;20100;-92
2021/11/22 00:58:26;;;;;;;8.10;5.15;;;7.50;95.40;;;;;;4899361;29;20056;-91
2021/11/22 01:00:52;;;;;;;9.43;4.95;;;7.50;95.40;;;;;;4867722;29;20056;-91
2021/11/22 01:03:18;;;;;;;7.07;4.03;;;7.50;95.40;;;;;;4882421;29;20044;-91
2021/11/22 01:05:43;;;;;;;8.88;4.75;;;7.50;95.40;;;;;;4882569;29;20075;-91
2021/11/22 01:08:09;;;;;;;5.43;3.90;;;7.50;95.30;;;;;;4883884;29;20071;-91
2021/11/22 01:10:38;;;;;;;5.95;4.10;;;7.50;95.30;;;;;;4885847;29;20036;-91
2021/11/22 01:13:05;;;;;;;7.18;4.28;;;7.50;95.20;;;;;;4886281;29;20021;-92
2021/11/22 01:15:33;;;;;;;9.68;5.28;;;7.50;95.20;;;;;;4902456;29;20039;-91
2021/11/22 01:18:01;;;;;;;7.00;3.75;;;7.50;95.20;;;;;;4870601;29;20036;-92
2021/11/22 01:20:29;;;;;;;11.82;4.95;;;7.40;95.20;;;;;;4885504;29;20043;-92
2021/11/22 01:23:01;;;;;;;6.65;4.20;;;7.40;95.20;;;;;;4870094;29;20068;-92
2021/11/22 01:25:28;;;;;;;6.88;4.53;;;7.30;95.20;;;;;;4890586;29;20290;-91
2021/11/22 01:27:55;;;;;;;7.93;4.22;;;7.30;95.20;;;;;;4874653;29;20043;-91
2021/11/22 01:30:24;;;;;;;5.82;3.63;;;7.30;95.30;;;;;;4880256;29;20060;-91
2021/11/22 01:32:52;;;;;;;7.25;4.43;;;7.20;95.30;;;;;;4907818;29;20043;-91
2021/11/22 01:35:19;;;;;;;6.80;4.55;;;7.10;95.30;;;;;;4895515;29;20040;-92
2021/11/22 01:37:47;;;;;;;9.02;4.53;;;7.10;95.50;;;;;;4894351;29;20029;-91
2021/11/22 01:40:21;;;;;;;8.32;5.18;;;7.00;95.70;;;;;;4892372;29;20092;-91
2021/11/22 01:42:47;;;;;;;5.97;4.35;;;7.00;95.80;;;;;;4902395;29;20088;-91
2021/11/22 01:45:15;;;;;;;8.77;5.10;;;7.00;95.80;;;;;;4885678;29;20414;-91
2021/11/22 01:47:43;;;;;;;6.32;3.92;;;7.00;95.80;;;;;;4885385;29;20029;-91
2021/11/22 01:50:19;;;;;;;10.00;5.07;;;7.00;95.80;;;;;;4898665;29;20100;-91
2021/11/22 01:52:46;;;;;;;8.07;4.88;;;7.00;96.00;;;;;;4870376;29;20039;-91
2021/11/22 01:55:18;;;;;;;8.75;4.35;;;7.00;96.10;;;;;;4884804;29;20025;-92
2021/11/22 01:57:46;;;;;;;7.40;4.30;;;7.00;96.20;;;;;;4885892;29;20425;-91
2021/11/22 02:00:23;;;;;;;5.88;4.05;;;7.10;96.30;;;;;;4901747;29;20036;-91
2021/11/22 02:02:52;;;;;;;7.75;4.20;;;7.20;96.60;;;;;;4902427;29;20028;-91
2021/11/22 02:05:18;;;;;;;7.55;4.20;;;7.20;96.30;;;;;;4885234;29;20119;-92
2021/11/22 02:07:44;;;;;;;7.22;4.15;;;7.30;96.30;;;;;;4869230;29;20144;-91
2021/11/22 02:10:11;;;;;;;7.35;4.30;;;7.30;96.20;;;;;;4901412;29;20111;-91
2021/11/22 02:12:37;;;;;;;10.88;3.88;;;7.40;96.30;;;;;;4884394;29;20035;-92
2021/11/22 02:15:06;;;;;;;7.28;4.63;;;7.40;96.10;;;;;;4901413;29;20040;-91
2021/11/22 02:17:36;;;;;;;6.05;3.58;;;7.50;96.10;;;;;;4899085;29;20044;-91
2021/11/22 02:20:07;;;;;;;12.40;4.40;;;7.50;96.00;;;;;;4899635;29;20032;-91
2021/11/22 02:22:38;;;;;;;8.02;4.10;;;7.60;96.00;;;;;;4901197;29;20058;-92
2021/11/22 02:25:09;;;;;;;5.65;3.63;;;7.60;95.90;;;;;;4884989;29;20037;-91
2021/11/22 02:27:43;;;;;;;8.68;4.70;;;7.70;95.90;;;;;;4897692;29;20071;-92
2021/11/22 02:30:10;;;;;;;7.53;4.47;;;7.60;95.80;;;;;;4885531;29;20041;-92
2021/11/22 02:32:38;;;;;;;6.88;4.35;;;7.70;95.80;;;;;;4884372;29;20059;-92
2021/11/22 02:35:06;;;;;;;10.70;4.82;;;7.70;95.80;;;;;;4884791;29;20068;-91
2021/11/22 02:37:33;;;;;;;6.57;4.10;;;7.70;95.80;;;;;;4901975;29;20052;-91
2021/11/22 02:39:59;;;;;;;6.90;3.70;;;7.80;95.80;;;;;;4884065;29;20083;-91
2021/11/22 02:42:27;;;;;;;8.65;5.03;;;7.80;95.80;;;;;;4884039;29;20366;-91
2021/11/22 02:44:54;;;;;;;7.90;4.97;;;7.80;95.80;;;;;;4901290;29;20037;-91
2021/11/22 02:47:22;;;;;;;8.25;4.60;;;7.80;95.70;;;;;;4870814;29;20540;-91
2021/11/22 02:49:48;;;;;;;5.82;4.03;;;7.80;95.70;;;;;;4892839;29;20551;-91
2021/11/22 02:52:14;;;;;;;6.05;3.47;;;7.90;95.70;;;;;;4881883;29;20037;-91
2021/11/22 02:54:41;;;;;;;6.68;3.78;;;7.90;95.70;;;;;;4897810;29;20057;-91
2021/11/22 02:57:11;;;;;;;8.25;5.00;;;7.90;95.70;;;;;;4901410;29;20104;-91
2021/11/22 02:59:39;;;;;;;8.43;4.47;;;7.90;95.70;;;;;;4901697;29;20052;-91
2021/11/22 03:02:11;;;;;;;6.78;3.53;;;7.90;95.70;;;;;;4897056;29;20053;-92
2021/11/22 03:04:39;;;;;;;6.82;4.15;;;7.90;95.60;;;;;;4916858;29;20036;-91
2021/11/22 03:07:06;;;;;;;7.07;4.68;;;7.90;95.60;;;;;;4894543;29;20052;-90
2021/11/22 03:09:35;;;;;;;5.90;3.58;;;7.90;95.50;;;;;;4899594;29;20079;-91
2021/11/22 03:12:03;;;;;;;9.57;5.10;;;7.90;95.50;;;;;;4897019;29;20033;-92
2021/11/22 03:14:32;;;;;;;8.50;4.57;;;7.90;95.60;;;;;;4903076;29;20035;-91
2021/11/22 03:17:00;;;;;;;8.00;4.78;;;7.90;95.60;;;;;;4871453;29;20044;-92
2021/11/22 03:19:26;;;;;;;8.65;4.53;;;7.90;95.60;;;;;;4868530;29;20037;-90
2021/11/22 03:21:58;;;;;;;8.38;4.35;;;7.80;95.50;;;;;;4900231;29;20032;-91
2021/11/22 03:24:26;;;;;;;7.38;5.10;;;7.80;95.40;;;;;;4883977;29;20457;-91
2021/11/22 03:26:52;;;;;;;8.38;4.30;;;7.70;95.50;;;;;;4883763;29;20028;-91
2021/11/22 03:29:18;;;;;;;8.00;5.13;;;7.60;95.10;;;;;;4867761;29;20408;-91
2021/11/22 03:31:46;;;;;;;10.15;5.55;;;7.50;95.10;;;;;;4899898;29;20029;-92
2021/11/22 03:34:13;;;;;;;9.70;7.18;;;7.40;95.10;;;;;;4883197;29;20119;-91
2021/11/22 03:36:41;;;;;;;13.13;6.78;;;7.30;95.20;;;;;;4899833;29;20036;-92
2021/11/22 03:39:17;;;;;;;12.10;7.82;;;7.20;95.30;;;;;;4883599;29;20071;-91
2021/11/22 03:41:43;;;;;;;9.15;5.63;;;7.10;95.40;;;;;;4881415;29;20047;-92
2021/11/22 03:44:10;;;;;;;9.20;6.18;;;6.90;95.50;;;;;;4869028;29;20476;-91
2021/11/22 03:46:39;;;;;;;11.25;5.18;;;6.90;95.80;;;;;;4870152;29;20067;-91
2021/11/22 03:49:06;;;;;;;12.82;5.63;;;6.80;96.00;;;;;;4885362;29;20060;-92
2021/11/22 03:51:32;;;;;;;7.47;5.10;;;6.70;96.30;;;;;;4885490;29;20032;-91
2021/11/22 03:53:58;;;;;;;10.32;4.68;;;6.70;96.40;;;;;;4884956;29;20097;-91
2021/11/22 03:56:24;;;;;;;8.85;5.50;;;6.70;96.60;;;;;;4884800;29;20060;-92
2021/11/22 03:58:50;;;;;;;10.60;5.88;;;6.70;96.80;;;;;;4888087;29;20031;-91
2021/11/22 04:01:16;;;;;;;10.77;5.97;;;6.70;96.80;;;;;;4870939;29;20102;-91
2021/11/22 04:03:43;;;;;;;9.07;5.85;;;6.70;96.80;;;;;;4882783;29;20052;-91
2021/11/22 04:06:09;;;;;;;12.43;6.88;;;6.70;96.80;;;;;;4882548;29;20040;-91
2021/11/22 04:08:35;;;;;;;12.15;6.20;;;6.70;96.90;;;;;;4899980;29;20063;-91
2021/11/22 04:11:01;;;;;;;8.23;4.95;;;6.70;96.80;;;;;;4883302;29;20473;-91
2021/11/22 04:13:27;;;;;;;10.98;6.03;;;6.70;96.80;;;;;;4883560;29;20048;-92
2021/11/22 04:15:53;;;;;;;10.35;5.05;;;6.70;96.80;;;;;;4882905;29;20080;-91
2021/11/22 04:18:23;;;;;;;11.77;5.65;;;6.70;96.60;;;;;;4886008;29;20029;-92
2021/11/22 04:20:49;;;;;;;11.80;6.13;;;6.70;96.50;;;;;;4902356;29;20151;-91
2021/11/22 04:23:15;;;;;;;12.73;6.50;;;6.60;96.50;;;;;;4886237;29;20032;-92
2021/11/22 04:25:41;;;;;;;13.88;7.70;;;6.50;96.50;;;;;;4891658;29;20036;-92
2021/11/22 04:28:10;;;;;;;15.05;7.65;;;6.40;96.60;;;;;;4892192;29;20028;-92
2021/11/22 04:30:36;;;;;;;11.13;6.97;;;6.40;96.80;;;;;;4877399;29;20032;-92
2021/11/22 04:33:04;;;;;;;10.48;6.57;;;6.30;96.90;;;;;;4887178;29;20569;-91
2021/11/22 04:35:30;;;;;;;10.93;6.80;;;6.20;97.10;;;;;;4899444;29;20123;-92
2021/11/22 04:37:57;;;;;;;11.35;7.07;;;6.10;97.20;;;;;;4882529;29;20115;-91
2021/11/22 04:40:23;;;;;;;8.10;6.35;;;6.00;97.20;;;;;;4900316;29;20043;-92
2021/11/22 04:42:49;;;;;;;15.30;7.35;;;6.00;97.40;;;;;;4900793;29;20032;-92
2021/11/22 04:45:18;;;;;;;16.88;7.35;;;5.90;97.50;;;;;;4871220;29;20576;-91
2021/11/22 04:47:47;;;;;;;12.02;5.57;;;5.80;97.70;;;;;;4904150;29;20037;-92
2021/11/22 04:50:13;;;;;;;16.83;9.88;;;5.70;97.80;;;;;;4870751;29;20036;-92
2021/11/22 04:52:40;;;;;;;18.48;7.85;;;5.70;97.90;;;;;;4903395;29;20043;-92
2021/11/22 04:55:07;;;;;;;25.45;7.50;;;5.60;98.00;;;;;;4903558;29;20453;-93
2021/11/22 04:57:34;;;;;;;18.70;8.75;;;5.60;98.10;;;;;;4871126;29;20071;-92
2021/11/22 05:00:04;;;;;;;18.38;6.88;;;5.60;98.10;;;;;;4886445;29;20076;-92
2021/11/22 05:02:33;;;;;;;19.50;8.50;;;5.50;98.20;;;;;;4886885;29;20563;-91
2021/11/22 05:04:59;;;;;;;12.50;7.22;;;5.50;98.20;;;;;;4871021;29;20044;-92
2021/11/22 05:07:25;;;;;;;21.27;8.88;;;5.40;98.30;;;;;;4885492;29;20059;-93
2021/11/22 05:09:54;;;;;;;21.98;12.23;;;5.40;98.40;;;;;;4870825;29;20143;-92
2021/11/22 05:12:21;;;;;;;20.42;10.57;;;5.40;98.50;;;;;;4886184;29;20060;-92
2021/11/22 05:14:51;;;;;;;16.63;9.55;;;5.30;98.70;;;;;;4886306;29;20061;-92
2021/11/22 05:17:17;;;;;;;17.63;10.93;;;5.30;98.80;;;;;;4902892;29;20039;-92
2021/11/22 05:19:43;;;;;;;15.07;8.85;;;5.20;98.80;;;;;;4886108;29;20040;-92
2021/11/22 05:22:17;;;;;;;15.68;8.77;;;5.20;98.90;;;;;;4886081;29;20036;-92
2021/11/22 05:24:48;;;;;;;13.27;7.53;;;5.20;99.20;;;;;;4886487;29;20062;-92
2021/11/22 05:27:20;;;;;;;18.45;8.73;;;5.10;99.20;;;;;;4886431;29;20041;-92
2021/11/22 05:29:47;;;;;;;16.05;8.60;;;5.10;99.40;;;;;;4886504;29;20104;-92
2021/11/22 05:32:16;;;;;;;12.27;7.53;;;5.10;99.50;;;;;;4870658;29;20044;-92
2021/11/22 05:34:47;;;;;;;13.82;5.95;;;5.00;99.80;;;;;;4885932;29;20031;-92
2021/11/22 05:37:16;;;;;;;16.05;8.25;;;5.00;99.80;;;;;;4887129;29;20036;-92
2021/11/22 05:39:43;;;;;;;16.08;7.55;;;5.00;99.80;;;;;;4871383;29;20109;-92
2021/11/22 05:42:09;;;;;;;15.30;7.25;;;5.00;99.90;;;;;;4903694;29;20037;-92
2021/11/22 05:44:35;;;;;;;13.20;7.43;;;4.90;99.90;;;;;;4895963;29;20155;-92
2021/11/22 05:47:04;;;;;;;11.90;6.55;;;5.00;99.90;;;;;;4897339;29;20388;-91
2021/11/22 05:49:32;;;;;;;10.18;6.13;;;5.00;99.90;;;;;;4881868;29;20020;-92
2021/11/22 05:52:02;;;;;;;16.33;8.43;;;5.00;99.90;;;;;;4910210;29;20039;-92
2021/11/22 05:54:31;;;;;;;11.07;7.15;;;5.10;99.90;;;;;;4874091;29;20308;-92
2021/11/22 05:57:00;;;;;;;12.55;6.30;;;5.10;99.90;;;;;;4891640;29;20067;-92
2021/11/22 05:59:28;;;;;;;9.60;6.03;;;5.10;99.90;;;;;;4906638;29;20131;-92
2021/11/22 06:02:06;;;;;;;13.38;6.22;;;5.10;99.90;;;;;;4886850;29;20048;-92
2021/11/22 06:04:37;;;;;;;13.55;7.20;;;5.20;99.90;;;;;;4884321;29;20033;-92
2021/11/22 06:07:08;;;;;;;16.13;9.75;;;5.20;99.90;;;;;;4852901;29;20080;-92
2021/11/22 06:09:37;;;;;;;15.48;6.40;;;5.30;99.90;;;;;;4884314;29;20033;-91
2021/11/22 06:12:05;;;;;;;13.80;7.93;;;5.30;99.90;;;;;;4867574;29;20039;-91
2021/11/22 06:14:32;;;;;;;15.43;7.03;;;5.40;99.90;;;;;;4867034;29;20544;-92
2021/11/22 06:17:00;;;;;;;12.95;5.90;;;5.40;99.90;;;;;;4872424;29;20100;-92
2021/11/22 06:19:26;;;;;;;13.98;7.30;;;5.50;99.90;;;;;;4884364;29;20052;-91
2021/11/22 06:21:55;;;;;;;11.88;7.05;;;5.60;99.80;;;;;;4884308;29;20039;-91
2021/11/22 06:24:25;;;;;;;12.70;7.53;;;5.60;99.70;;;;;;4901924;29;20037;-92
2021/11/22 06:26:55;;;;;;;15.00;8.23;;;5.70;99.70;;;;;;4886694;29;20033;-91
2021/11/22 06:29:27;;;;;;;11.43;6.50;;;5.80;99.60;;;;;;4889426;29;20063;-92
2021/11/22 06:31:52;;;;;;;12.95;6.70;;;5.90;99.60;;;;;;4887943;29;20111;-92
2021/11/22 06:34:22;;;;;;;14.98;8.23;;;6.00;99.50;;;;;;4902793;29;20038;-90
2021/11/22 06:36:48;;;;;;;15.98;8.57;;;6.00;99.40;;;;;;4871505;29;20048;-92
2021/11/22 06:39:15;;;;;;;26.50;12.73;;;6.10;99.30;;;;;;4871023;29;20039;-92
2021/11/22 06:41:41;;;;;;;28.50;14.02;;;6.10;99.30;;;;;;4870238;29;20029;-92
2021/11/22 06:44:10;;;;;;;20.10;11.02;;;6.20;99.30;;;;;;4870940;29;20032;-93
2021/11/22 06:46:36;;;;;;;17.65;9.10;;;6.30;99.20;;;;;;4885781;29;20492;-92
2021/11/22 06:49:13;;;;;;;22.45;10.82;;;6.40;99.10;;;;;;4887915;29;20037;-91
2021/11/22 06:51:54;;;;;;;;;;;;;;;;;;;;;
2021/11/22 06:54:21;;;;;;;18.92;8.05;;;6.60;99.00;;;;;;4895009;29;20043;-93
2021/11/22 06:56:47;;;;;;;14.75;8.07;;;6.60;98.90;;;;;;4906993;29;20060;-92
2021/11/22 06:59:48;;;;;;;15.77;8.98;;;6.70;98.80;;;;;;4874588;29;20060;-91
2021/11/22 07:02:16;;;;;;;16.67;9.93;;;6.80;98.60;;;;;;4888237;29;20031;-92
2021/11/22 07:04:50;;;;;;;16.52;10.23;;;6.80;98.60;;;;;;4903380;29;20040;-90
2021/11/22 07:07:18;;;;;;;16.25;9.55;;;6.80;98.70;;;;;;4905198;29;20056;-89
2021/11/22 07:10:35;;;;;;;17.73;8.13;;;6.90;98.80;;;;;;4890851;29;20036;-92
2021/11/22 07:13:03;;;;;;;18.25;11.00;;;7.10;98.90;;;;;;4861614;29;20051;-91
2021/11/22 07:15:36;;;;;;;11.95;7.28;;;7.30;98.80;;;;;;4900529;29;20000;-90
2021/11/22 07:18:05;;;;;;;13.85;8.23;;;7.50;98.70;;;;;;4900150;29;20114;-90
2021/11/22 07:20:45;;;;;;;16.00;9.13;;;7.60;98.50;;;;;;4906566;29;20052;-90
2021/11/22 07:23:11;;;;;;;17.25;8.43;;;7.80;98.40;;;;;;4905303;29;20024;-92
2021/11/22 07:25:37;;;;;;;13.57;7.45;;;7.90;98.00;;;;;;4905242;29;20017;-91
2021/11/22 07:28:09;;;;;;;12.45;7.72;;;8.00;98.00;;;;;;4913109;29;20025;-91
2021/11/22 07:30:37;;;;;;;14.48;7.88;;;8.00;97.90;;;;;;4903896;29;20029;-91
2021/11/22 07:33:03;;;;;;;25.30;7.63;;;8.20;97.90;;;;;;4900954;29;20033;-91
2021/11/22 07:35:32;;;;;;;13.80;8.70;;;8.30;97.80;;;;;;4906425;29;20506;-92
2021/11/22 07:38:05;;;;;;;14.05;7.13;;;8.40;97.70;;;;;;4877643;29;20044;-92
2021/11/22 07:43:38;;;;;;;;;;;;;;;;;;;;;
2021/11/22 07:46:22;;;;;;;15.40;9.80;;;8.80;97.50;;;;;;4840828;29;20125;-92
2021/11/22 07:49:00;;;;;;;;;;;;;;;;;;;;;
2021/11/22 07:51:32;;;;;;;18.70;9.75;;;9.10;97.00;;;;;;4916061;29;20060;-93
2021/11/22 07:54:15;;;;;;;28.50;16.27;;;9.20;96.80;;;;;;4888179;29;20389;-95
2021/11/22 07:56:41;;;;;;;25.00;15.07;;;9.30;96.60;;;;;;4889156;29;20076;-92
2021/11/22 07:59:31;;;;;;;25.63;13.30;;;9.40;96.40;;;;;;4905234;29;20035;-94
2021/11/22 08:05:42;;;;;;;16.23;9.90;;;9.50;96.20;;;;;;4899197;29;20133;-93
2021/11/22 08:13:24;;;;;;;17.58;10.88;;;9.70;95.90;;;;;;4902870;29;20063;-92
2021/11/22 08:16:04;;;;;;;16.20;9.10;;;9.80;95.70;;;;;;4903201;29;20044;-89
2021/11/22 08:19:13;;;;;;;;;;;;;;;;;;;;;
2021/11/22 08:22:13;;;;;;;;;;;;;;;;;;;;;
2021/11/22 08:25:16;;;;;;;16.15;9.23;;;10.00;95.40;;;;;;4893179;29;20612;-90
2021/11/22 08:28:11;;;;;;;18.00;10.57;;;10.10;95.30;;;;;;4881394;29;20052;-91
2021/11/22 08:30:37;;;;;;;16.52;9.38;;;10.20;95.20;;;;;;4878126;29;20036;-91
2021/11/22 08:36:51;;;;;;;10.82;6.50;;;10.30;94.10;;;;;;4815790;29;20090;-90
2021/11/22 08:39:31;;;;;;;10.35;5.63;;;10.30;93.20;;;;;;4840302;29;20091;-92
2021/11/22 08:45:40;;;;;;;7.88;4.78;;;10.10;92.50;;;;;;4853156;29;20041;-90
2021/11/22 08:48:12;;;;;;;13.25;6.22;;;10.10;93.20;;;;;;4835878;29;20075;-91
2021/11/22 08:51:13;;;;;;;9.45;6.15;;;10.10;92.80;;;;;;4835862;29;20034;-91
2021/11/22 08:53:48;;;;;;;9.55;6.93;;;10.00;92.70;;;;;;4830945;29;20050;-92
2021/11/22 08:56:13;;;;;;;9.25;5.65;;;10.00;93.10;;;;;;4831546;29;20526;-90
2021/11/22 08:58:51;;;;;;;7.97;5.45;;;10.00;93.30;;;;;;4817425;29;20173;-92
2021/11/22 09:01:46;;;;;;;11.00;6.35;;;10.10;93.60;;;;;;4878263;29;20040;-90
2021/11/22 09:07:41;;;;;;;11.57;6.22;;;10.20;92.70;;;;;;4877664;29;20040;-92
2021/11/22 09:10:22;;;;;;;10.68;7.78;;;10.20;92.10;;;;;;4850865;29;20047;-90
2021/11/22 09:12:51;;;;;;;7.70;5.70;;;10.10;92.10;;;;;;4879635;29;20124;-91
2021/11/22 09:15:22;;;;;;;11.23;6.13;;;10.10;92.90;;;;;;4848511;29;20037;-92
2021/11/22 09:20:41;;;;;;;10.15;5.53;;;10.10;92.50;;;;;;4866745;29;20082;-91
2021/11/22 09:23:19;;;;;;;7.82;5.20;;;10.10;92.90;;;;;;4864620;29;20057;-92
2021/11/22 09:26:36;;;;;;;13.68;6.03;;;10.00;92.80;;;;;;4858339;29;20041;-91
2021/11/22 09:29:08;;;;;;;7.88;5.65;;;10.00;92.70;;;;;;4895620;29;20044;-92
2021/11/22 09:34:38;;;;;;;11.63;7.07;;;10.00;93.00;;;;;;4905698;29;20037;-91
2021/11/22 09:37:16;;;;;;;7.22;4.47;;;9.90;93.00;;;;;;4882220;29;20025;-92
2021/11/22 09:40:10;;;;;;;10.52;5.72;;;9.90;93.20;;;;;;4886300;29;20028;-92
2021/11/22 09:42:42;;;;;;;10.57;5.35;;;9.90;93.00;;;;;;4881058;29;20041;-92
2021/11/22 09:45:38;;;;;;;12.13;7.00;;;9.80;93.20;;;;;;4900882;29;20087;-93
2021/11/22 09:48:19;;;;;;;9.35;5.57;;;9.80;93.40;;;;;;4870730;29;20069;-91
2021/11/22 09:51:12;;;;;;;8.10;4.95;;;9.80;93.60;;;;;;4871128;29;20135;-91
2021/11/22 09:53:42;;;;;;;7.90;4.88;;;9.80;93.60;;;;;;4881845;29;20051;-92
2021/11/22 09:56:41;;;;;;;8.45;5.32;;;9.90;93.50;;;;;;4885548;29;20104;-92
2021/11/22 09:59:32;;;;;;;9.00;5.40;;;10.00;93.40;;;;;;4886405;29;20035;-92
2021/11/22 10:02:25;;;;;;;7.95;4.80;;;10.00;93.20;;;;;;4865143;29;20029;-92
2021/11/22 10:05:26;;;;;;;8.52;4.88;;;10.00;93.00;;;;;;4883807;29;20044;-91
2021/11/22 10:08:12;;;;;;;9.40;5.10;;;10.00;92.70;;;;;;4882180;29;20068;-90
2021/11/22 10:10:59;;;;;;;7.75;4.57;;;10.00;92.70;;;;;;4881049;29;20025;-91
2021/11/22 10:13:45;;;;;;;6.35;3.95;;;10.00;92.60;;;;;;4865234;29;20465;-90
2021/11/22 10:16:17;;;;;;;8.02;5.00;;;10.00;92.70;;;;;;4873336;29;20033;-90
2021/11/22 10:19:07;;;;;;;7.38;4.05;;;10.10;92.70;;;;;;4892402;29;20029;-90
2021/11/22 10:21:40;;;;;;;6.22;4.05;;;10.20;92.50;;;;;;4871600;29;20066;-91
2021/11/22 10:24:24;;;;;;;6.22;3.80;;;10.30;92.40;;;;;;4883100;29;20468;-91
2021/11/22 10:26:52;;;;;;;8.07;5.05;;;10.40;91.70;;;;;;4888860;29;20052;-92
2021/11/22 10:29:39;;;;;;;5.88;4.07;;;10.40;91.30;;;;;;4890700;29;20081;-93
2021/11/22 10:32:17;;;;;;;7.20;4.25;;;10.40;90.50;;;;;;4892592;29;20052;-92
2021/11/22 10:35:39;;;;;;;;;;;;;;;;;;;;;
2021/11/22 10:38:15;;;;;;;7.38;4.65;;;10.50;91.00;;;;;;4894555;29;20425;-91
2021/11/22 10:40:50;;;;;;;4.43;2.95;;;10.50;90.50;;;;;;4900902;29;20032;-91
2021/11/22 10:43:16;;;;;;;4.82;4.00;;;10.40;90.60;;;;;;4886599;29;20108;-91
2021/11/22 10:46:22;;;;;;;7.22;4.47;;;10.50;90.60;;;;;;4901840;29;20035;-92
2021/11/22 10:49:27;;;;;;;5.70;3.67;;;10.40;90.50;;;;;;4896380;29;20037;-94
2021/11/22 10:52:16;;;;;;;5.05;3.30;;;10.40;90.10;;;;;;4879231;29;20585;-90
2021/11/22 10:55:03;;;;;;;5.88;3.25;;;10.30;90.10;;;;;;4899252;29;20047;-91
2021/11/22 10:58:01;;;;;;;6.53;3.35;;;10.30;90.60;;;;;;4896218;29;20048;-90
2021/11/22 11:00:34;;;;;;;5.78;3.30;;;10.30;90.70;;;;;;4882105;29;20051;-90
2021/11/22 11:03:08;;;;;;;6.60;3.67;;;10.30;90.70;;;;;;4881517;29;20024;-90
2021/11/22 11:05:43;;;;;;;3.65;2.22;;;10.30;90.40;;;;;;4894472;29;20100;-93
2021/11/22 11:08:15;;;;;;;4.72;2.90;;;10.40;89.60;;;;;;4872976;29;20036;-91
2021/11/22 11:13:47;;;;;;;3.75;2.55;;;10.40;88.00;;;;;;5095009;27;20475;-92
2021/11/22 11:16:18;;;;;;;7.45;3.28;;;10.40;85.80;;;;;;5098686;28;20028;-93
2021/11/22 11:19:09;;;;;;;7.22;2.53;;;10.40;86.20;;;;;;5072548;28;20111;-92
2021/11/22 11:21:57;;;;;;;2.50;1.92;;;10.30;85.80;;;;;;5071323;28;20040;-91
2021/11/22 11:24:30;;;;;;;2.63;2.05;;;10.30;86.30;;;;;;5087921;28;20032;-91
2021/11/22 11:26:59;;;;;;;3.45;2.25;;;10.30;86.90;;;;;;5084843;28;20478;-90
2021/11/22 11:29:25;;;;;;;3.72;2.08;;;10.30;88.20;;;;;;5090494;28;20032;-91
2021/11/22 11:31:56;;;;;;;4.47;2.58;;;10.30;88.50;;;;;;5097965;28;20036;-92
2021/11/22 11:34:32;;;;;;;2.50;2.08;;;10.30;87.80;;;;;;5086012;28;20131;-90
2021/11/22 11:37:18;;;;;;;2.30;2.03;;;10.30;88.20;;;;;;5090897;28;20099;-89
2021/11/22 11:39:59;;;;;;;3.75;2.08;;;10.30;88.60;;;;;;5094938;28;20043;-89
2021/11/22 11:42:59;;;;;;;3.78;2.55;;;10.30;89.00;;;;;;5097456;28;20028;-88
2021/11/22 11:46:00;;;;;;;2.08;1.50;;;10.40;87.40;;;;;;5076023;28;20040;-89
2021/11/22 11:48:51;;;;;;;2.20;1.80;;;10.50;88.10;;;;;;5092747;28;20033;-90
2021/11/22 11:51:46;;;;;;;2.95;2.20;;;10.50;88.70;;;;;;5097802;28;20036;-90
2021/11/22 11:54:28;;;;;;;4.80;2.45;;;10.70;88.10;;;;;;5095061;28;20016;-90
2021/11/22 11:57:08;;;;;;;2.25;1.88;;;10.80;86.60;;;;;;5073872;28;20036;-89
2021/11/22 11:59:47;;;;;;;3.17;1.83;;;10.80;85.70;;;;;;5090470;28;20083;-89
2021/11/22 12:02:33;;;;;;;4.28;2.33;;;10.80;86.60;;;;;;5087640;28;20032;-89
2021/11/22 12:05:21;;;;;;;3.88;1.90;;;10.80;83.10;;;;;;5080507;28;20074;-89
2021/11/22 12:07:51;;;;;;;2.75;2.33;;;10.80;83.60;;;;;;5088619;28;20056;-89
2021/11/22 12:10:22;;;;;;;2.70;1.90;;;10.80;84.90;;;;;;5071891;28;20025;-90
2021/11/22 12:12:57;;;;;;;6.13;1.58;;;10.90;85.00;;;;;;5069375;28;20057;-90
2021/11/22 12:15:45;;;;;;;3.33;2.10;;;11.00;83.90;;;;;;5086172;28;20021;-91
2021/11/22 12:18:38;;;;;;;1.77;1.67;;;11.00;81.90;;;;;;5078748;28;20041;-89
2021/11/22 12:21:29;;;;;;;3.42;1.85;;;10.80;82.80;;;;;;5078013;28;20043;-88
2021/11/22 12:23:59;;;;;;;3.85;2.67;;;10.70;83.70;;;;;;5057845;28;20037;-88
2021/11/22 12:26:37;;;;;;;3.25;2.08;;;10.60;83.90;;;;;;5071506;28;20208;-89
2021/11/22 12:29:07;;;;;;;2.80;2.15;;;10.50;84.30;;;;;;5067663;28;20020;-89
2021/11/22 12:31:49;;;;;;;4.97;2.25;;;10.40;84.60;;;;;;5069791;28;20034;-89
2021/11/22 12:34:15;;;;;;;2.15;1.50;;;10.30;84.50;;;;;;5066027;28;20078;-89
2021/11/22 12:36:50;;;;;;;1.45;1.33;;;10.10;84.80;;;;;;5063238;28;20033;-90
2021/11/22 12:39:21;;;;;;;2.42;1.45;;;10.10;84.60;;;;;;5074338;28;20059;-88
2021/11/22 12:41:49;;;;;;;1.75;1.20;;;9.90;85.50;;;;;;5046915;28;20021;-89
2021/11/22 12:44:20;;;;;;;1.75;1.63;;;9.90;85.80;;;;;;5060096;28;20036;-89
2021/11/22 12:46:55;;;;;;;5.22;2.13;;;9.90;86.20;;;;;;5060940;28;20036;-89
2021/11/22 12:49:36;;;;;;;2.63;2.13;;;9.90;86.30;;;;;;5071564;28;20028;-89
2021/11/22 12:52:22;;;;;;;2.28;1.67;;;9.80;86.40;;;;;;5064908;28;20033;-89
2021/11/22 12:54:59;;;;;;;2.67;1.80;;;9.80;86.60;;;;;;5069699;28;20128;-90
2021/11/22 12:57:34;;;;;;;4.65;2.10;;;9.70;86.60;;;;;;5075640;28;20021;-90
2021/11/22 13:00:33;;;;;;;2.40;1.77;;;9.60;86.80;;;;;;5074942;28;20101;-90
2021/11/22 13:02:59;;;;;;;2.08;1.85;;;9.50;86.50;;;;;;5058553;28;20043;-89
2021/11/22 13:05:58;;;;;;;3.90;2.60;;;9.40;86.90;;;;;;5067614;28;20131;-90
2021/11/22 13:08:24;;;;;;;2.08;1.50;;;9.30;87.00;;;;;;5071448;28;20352;-89
2021/11/22 13:10:56;;;;;;;2.90;1.75;;;9.20;87.80;;;;;;5070430;28;20037;-89
2021/11/22 13:13:41;;;;;;;1.98;1.48;;;9.10;89.10;;;;;;5075910;28;20500;-90
2021/11/22 13:16:19;;;;;;;3.58;1.90;;;9.00;89.20;;;;;;5058884;28;20025;-90
2021/11/22 13:19:05;;;;;;;2.25;1.80;;;9.00;89.80;;;;;;5072057;28;20046;-90
2021/11/22 13:21:48;;;;;;;2.30;1.50;;;8.90;90.00;;;;;;5084711;28;20079;-92
2021/11/22 13:24:22;;;;;;;2.53;1.40;;;8.90;90.20;;;;;;5093751;28;20024;-92
2021/11/22 13:26:51;;;;;;;2.65;1.40;;;8.80;90.50;;;;;;5059747;28;20435;-90
2021/11/22 13:29:26;;;;;;;2.20;1.48;;;8.70;90.80;;;;;;5081700;28;20037;-92
2021/11/22 13:31:58;;;;;;;4.25;1.83;;;8.70;91.00;;;;;;5060016;28;20029;-93
2021/11/22 13:34:29;;;;;;;5.13;1.92;;;8.70;91.20;;;;;;5094833;28;20051;-92
2021/11/22 13:37:06;;;;;;;1.33;1.20;;;8.70;91.40;;;;;;5081037;28;20097;-91
2021/11/22 13:39:47;;;;;;;2.05;1.40;;;8.60;91.50;;;;;;5083587;28;20084;-91
2021/11/22 13:42:23;;;;;;;3.45;2.17;;;8.60;91.80;;;;;;5101017;28;20032;-92
2021/11/22 13:44:55;;;;;;;2.13;1.63;;;8.50;92.30;;;;;;5079332;28;20059;-93
2021/11/22 13:47:34;;;;;;;2.83;1.80;;;8.30;92.40;;;;;;5071531;28;20040;-93
2021/11/22 13:50:01;;;;;;;5.47;1.60;;;8.30;92.40;;;;;;5070159;28;20048;-94
2021/11/22 13:52:31;;;;;;;6.13;2.28;;;8.20;92.50;;;;;;5073414;28;20044;-93
2021/11/22 13:55:40;;;;;;;1.85;1.52;;;8.20;92.60;;;;;;5082792;28;20025;-93
2021/11/22 13:58:19;;;;;;;1.60;1.33;;;8.20;92.50;;;;;;5065053;28;20029;-91
2021/11/22 14:01:05;;;;;;;3.58;1.80;;;8.20;92.30;;;;;;5084761;28;20028;-92